Time;durP1;ratioP1;P1;durP2;ratioP2;P2;SDS_P1;SDS_P2;PMS_P1;PMS_P2;Temp;Humidity;BMP_temperature;BMP_pressure;BME280_temperature;BME280_humidity;BME280_pressure;Samples;Min_cycle;Max_cycle;Signal;HPM_P1;HPM_P2
2022/05/10 00:06:41;;;;;;;14.80;6.80;;;;;;;8.76;54.16;99541.34;432611;1271;108879;-46
2022/05/10 00:26:57;;;;;;;13.00;5.30;;;;;;;8.23;55.07;99527.50;432539;1271;112398;-44
2022/05/10 00:37:04;;;;;;;17.50;6.50;;;;;;;7.99;55.20;99519.38;432571;1271;108953;-41
2022/05/10 00:47:15;;;;;;;15.60;5.40;;;;;;;7.70;55.59;99516.34;432447;1271;99270;-43
2022/05/10 00:57:24;;;;;;;12.10;5.70;;;;;;;7.48;55.94;99502.29;432469;1271;107805;-47
2022/05/10 01:07:38;;;;;;;14.50;7.50;;;;;;;7.30;56.61;99498.27;432440;1271;99431;-43
2022/05/10 01:17:46;;;;;;;15.50;8.10;;;;;;;7.08;57.29;99490.07;432559;1271;112170;-45
2022/05/10 01:27:52;;;;;;;20.60;7.60;;;;;;;6.99;57.68;99483.30;432458;1273;108838;-46
2022/05/10 01:38:05;;;;;;;14.40;7.40;;;;;;;7.05;58.05;99481.02;432568;1271;99299;-45
2022/05/10 01:48:13;;;;;;;11.90;6.00;;;;;;;7.39;58.26;99478.52;433107;1260;109462;-44
2022/05/10 01:58:25;;;;;;;9.90;5.70;;;;;;;7.76;58.30;99468.20;432442;1271;99353;-43
2022/05/10 02:08:31;;;;;;;14.30;6.10;;;;;;;7.92;57.90;99464.59;432523;1271;112500;-46
2022/05/10 02:18:43;;;;;;;7.60;5.00;;;;;;;7.99;57.79;99452.48;432536;1271;107745;-41
2022/05/10 02:28:48;;;;;;;9.20;4.30;;;;;;;8.42;57.89;99446.38;432389;1271;99392;-44
2022/05/10 02:38:56;;;;;;;10.10;5.00;;;;;;;8.72;57.44;99436.17;432507;1271;108781;-45
2022/05/10 02:49:03;;;;;;;11.70;5.30;;;;;;;8.52;57.29;99432.16;432617;1271;99281;-44
2022/05/10 02:59:14;;;;;;;16.10;6.20;;;;;;;8.22;57.45;99425.27;432462;1271;112517;-47
2022/05/10 03:09:20;;;;;;;16.50;7.70;;;;;;;7.56;57.38;99422.72;432580;1271;108721;-45
2022/05/10 03:19:28;;;;;;;28.10;7.80;;;;;;;7.05;57.59;99420.96;432478;1271;99350;-42
2022/05/10 03:29:35;;;;;;;27.20;9.50;;;;;;;6.63;58.14;99417.58;432591;1271;110952;-42
2022/05/10 03:39:42;;;;;;;19.80;7.00;;;;;;;6.46;58.36;99415.09;432600;1271;108723;-48
2022/05/10 03:49:56;;;;;;;14.50;6.60;;;;;;;6.60;58.71;99406.39;432507;1271;99642;-46
2022/05/10 04:00:07;;;;;;;30.60;9.30;;;;;;;8.85;58.43;99396.19;432502;1271;111728;-42
2022/05/10 04:10:15;;;;;;;23.90;7.70;;;;;;;11.36;56.81;99376.45;432370;1272;108798;-45
2022/05/10 04:20:21;;;;;;;35.80;9.40;;;;;;;13.32;54.86;99368.02;432587;1271;98078;-42
2022/05/10 04:30:28;;;;;;;44.80;11.10;;;;;;;14.63;53.31;99363.99;432398;1271;108768;-46
2022/05/10 04:51:01;;;;;;;36.50;11.50;;;;;;;16.61;51.48;99386.11;432465;1271;112463;-48
2022/05/10 05:01:09;;;;;;;37.20;13.50;;;;;;;17.27;49.75;99393.17;432544;1271;108750;-47
2022/05/10 05:11:17;;;;;;;19.80;8.00;;;;;;;17.72;48.14;99390.89;432631;1271;98882;-43
2022/05/10 05:21:24;;;;;;;13.90;5.80;;;;;;;17.88;46.74;99394.09;432428;1271;108881;-41
2022/05/10 05:41:39;;;;;;;11.80;4.40;;;;;;;16.89;44.24;99395.22;432626;1271;112425;-41
2022/05/10 05:51:46;;;;;;;11.20;4.10;;;;;;;17.02;43.19;99397.66;432368;1272;109049;-43
2022/05/10 06:01:54;;;;;;;10.00;4.60;;;;;;;17.08;42.30;99396.60;432497;1271;98037;-44
2022/05/10 06:12:01;;;;;;;6.00;3.90;;;;;;;17.52;42.42;99398.04;432503;1271;109032;-45
2022/05/10 06:22:11;;;;;;;7.70;3.80;;;;;;;17.98;41.33;99394.92;432367;1271;260757;-42
2022/05/10 06:32:20;;;;;;;7.80;4.00;;;;;;;18.03;41.64;99387.30;432562;1271;112388;-41
2022/05/10 06:42:27;;;;;;;9.90;3.30;;;;;;;18.79;40.93;99382.16;432518;1271;109734;-43
2022/05/10 06:52:34;;;;;;;10.90;4.20;;;;;;;19.24;39.89;99380.03;432610;1271;99260;-41
2022/05/10 07:02:42;;;;;;;13.60;3.70;;;;;;;19.07;39.61;99377.97;432464;1271;109673;-45
2022/05/10 07:12:49;;;;;;;10.20;3.50;;;;;;;19.40;38.66;99370.10;432452;1271;99276;-42
2022/05/10 07:22:56;;;;;;;7.30;2.50;;;;;;;19.35;37.91;99365.07;432524;1271;112389;-45
2022/05/10 07:33:04;;;;;;;6.30;2.60;;;;;;;19.39;37.49;99356.65;432438;1271;109003;-44
2022/05/10 07:53:19;;;;;;;9.20;3.20;;;;;;;19.72;35.96;99357.32;432520;1271;108809;-42
2022/05/10 08:03:28;;;;;;;5.50;2.00;;;;;;;19.74;35.97;99356.45;432592;1271;99293;-43
2022/05/10 08:13:37;;;;;;;3.70;2.20;;;;;;;19.78;35.07;99358.33;432745;1271;112512;-45
2022/05/10 08:23:45;;;;;;;4.00;2.10;;;;;;;19.93;35.51;99352.50;432553;1271;108804;-43
2022/05/10 08:33:52;;;;;;;3.60;2.30;;;;;;;20.13;35.36;99348.41;432525;1271;98403;-40
2022/05/10 08:44:01;;;;;;;7.10;3.00;;;;;;;20.22;34.84;99335.64;432475;1271;108920;-47
2022/05/10 08:54:09;;;;;;;4.40;2.60;;;;;;;20.20;34.34;99322.86;432486;1271;99260;-44
2022/05/10 09:04:25;;;;;;;9.20;3.00;;;;;;;20.55;34.69;99318.45;432497;1271;111586;-41
2022/05/10 09:14:43;;;;;;;4.40;2.10;;;;;;;20.65;34.42;99305.94;432534;1271;108815;-44
2022/05/10 09:24:48;;;;;;;6.70;2.10;;;;;;;20.34;33.62;99303.20;432670;1271;98285;-41
2022/05/10 09:34:54;;;;;;;8.60;2.60;;;;;;;20.49;33.97;99297.39;432572;1271;109170;-45
2022/05/10 09:55:07;;;;;;;8.60;2.50;;;;;;;20.86;33.96;99269.98;432551;1273;111518;-43
2022/05/10 10:05:25;;;;;;;5.40;2.40;;;;;;;21.41;33.61;99253.59;432644;1271;109273;-44
2022/05/10 10:15:31;;;;;;;6.00;2.60;;;;;;;21.88;33.77;99242.77;432486;1271;99151;-44
2022/05/10 10:35:47;;;;;;;4.30;2.30;;;;;;;21.65;32.89;99221.29;432495;1271;99230;-45
2022/05/10 10:45:59;;;;;;;8.40;2.50;;;;;;;21.78;33.00;99208.95;432511;1271;112380;-40
2022/05/10 10:56:13;;;;;;;5.50;2.30;;;;;;;21.58;32.39;99196.68;432480;1271;108806;-44
2022/05/10 11:06:23;;;;;;;4.60;2.20;;;;;;;21.27;32.69;99183.08;432507;1271;99254;-44
2022/05/10 11:16:33;;;;;;;2.40;2.20;;;;;;;21.60;32.41;99170.38;432593;1273;107804;-45
2022/05/10 11:26:46;;;;;;;3.50;2.20;;;;;;;21.69;32.20;99165.70;432451;1271;98840;-48
2022/05/10 11:36:59;;;;;;;7.10;2.10;;;;;;;22.03;32.54;99151.90;432683;1271;112412;-44
2022/05/10 11:47:38;;;;;;;6.10;2.70;;;;;;;22.36;32.46;99134.27;432477;1271;108921;-43
2022/05/10 11:57:45;;;;;;;3.50;2.20;;;;;;;22.90;31.82;99116.67;432585;1271;99295;-45
2022/05/10 12:07:53;;;;;;;3.20;2.10;;;;;;;22.40;30.47;99105.94;432498;1271;109193;-44
2022/05/10 12:28:41;;;;;;;3.80;2.50;;;;;;;22.28;31.25;99081.27;432516;1271;112246;-46
2022/05/10 12:38:47;;;;;;;4.30;2.20;;;;;;;22.51;30.60;99065.45;432406;1271;108879;-43
2022/05/10 12:48:58;;;;;;;4.00;2.50;;;;;;;22.16;30.40;99050.20;432639;1271;98033;-40
2022/05/10 12:59:03;;;;;;;3.50;2.10;;;;;;;22.44;30.24;99043.15;432444;1272;108314;-42
2022/05/10 13:09:33;;;;;;;5.70;2.10;;;;;;;22.67;29.67;99029.04;432028;1273;99330;-43
2022/05/10 13:19:44;;;;;;;3.30;2.50;;;;;;;22.76;29.21;99008.77;432120;1273;112680;-44
2022/05/10 13:29:51;;;;;;;6.60;1.70;;;;;;;22.70;28.75;98995.34;432528;1271;108832;-44
2022/05/10 13:39:58;;;;;;;12.30;2.40;;;;;;;22.69;28.22;98980.15;432263;1272;99279;-47
2022/05/10 13:50:04;;;;;;;6.30;2.10;;;;;;;22.63;28.69;98969.07;432622;1272;108959;-43
2022/05/10 14:00:21;;;;;;;4.10;2.30;;;;;;;22.55;28.38;98953.15;432431;1271;99251;-41
2022/05/10 14:10:32;;;;;;;4.80;2.70;;;;;;;22.86;29.33;98941.80;432586;1271;112556;-44
2022/05/10 14:20:44;;;;;;;3.20;2.10;;;;;;;23.05;29.37;98924.83;432381;1272;106995;-41
2022/05/10 14:30:53;;;;;;;6.30;3.10;;;;;;;22.82;29.14;98916.29;432715;1271;98041;-42
2022/05/10 14:41:01;;;;;;;10.90;2.50;;;;;;;22.78;29.41;98901.82;432446;1271;108917;-43
2022/05/10 14:51:08;;;;;;;5.40;2.50;;;;;;;22.69;29.02;98888.63;432559;1271;99295;-41
2022/05/10 15:11:21;;;;;;;5.20;2.80;;;;;;;22.57;29.24;98857.71;432618;1272;108848;-45
2022/05/10 15:21:30;;;;;;;8.50;3.60;;;;;;;22.74;29.33;98847.48;432642;1271;98074;-47
2022/05/10 15:31:37;;;;;;;5.60;2.80;;;;;;;22.76;29.62;98844.39;432471;1272;108835;-49
2022/05/10 15:41:45;;;;;;;12.70;3.50;;;;;;;22.65;29.78;98837.53;432631;1272;98869;-44
2022/05/10 15:51:58;;;;;;;5.40;2.50;;;;;;;22.48;30.16;98825.27;432575;1271;112695;-47
2022/05/10 16:02:03;;;;;;;7.90;2.70;;;;;;;22.20;30.39;98815.03;432684;1271;108992;-46
2022/05/10 16:12:11;;;;;;;4.60;2.80;;;;;;;21.99;30.53;98803.73;432615;1271;99285;-47
2022/05/10 16:22:18;;;;;;;4.40;2.70;;;;;;;21.86;30.72;98799.52;432517;1273;108843;-44
2022/05/10 16:32:27;;;;;;;12.10;3.80;;;;;;;21.80;30.92;98795.70;432565;1271;98390;-48
2022/05/10 16:42:35;;;;;;;6.90;3.60;;;;;;;21.59;31.27;98793.38;432529;1273;112506;-46
2022/05/10 16:52:44;;;;;;;7.10;3.30;;;;;;;21.50;31.87;98788.73;432641;1272;108799;-43
2022/05/10 17:13:04;;;;;;;32.50;5.20;;;;;;;21.00;32.72;98775.00;432422;1273;108867;-46
2022/05/10 17:23:12;;;;;;;6.50;3.20;;;;;;;20.73;33.35;98770.86;432270;1273;99375;-47
2022/05/10 17:33:19;;;;;;;7.10;3.50;;;;;;;20.35;33.82;98766.77;432338;1272;112400;-42
2022/05/10 17:43:26;;;;;;;3.70;2.70;;;;;;;20.00;34.49;98764.33;432548;1273;108910;-45
2022/05/10 17:53:33;;;;;;;6.40;2.90;;;;;;;19.73;35.09;98769.04;432727;1273;98064;-47
2022/05/10 18:03:42;;;;;;;6.50;3.70;;;;;;;19.21;36.03;98768.75;432339;1273;108865;-46
2022/05/10 18:13:53;;;;;;;10.00;3.60;;;;;;;18.59;37.48;98764.46;432205;1273;311233;-45
2022/05/10 18:24:00;;;;;;;14.20;4.20;;;;;;;17.98;38.59;98774.89;432376;1273;111415;-46
2022/05/10 18:34:08;;;;;;;18.80;6.10;;;;;;;17.19;39.61;98781.16;432550;1273;108787;-46
2022/05/10 18:44:16;;;;;;;16.00;4.80;;;;;;;16.62;40.78;98781.08;432626;1273;99250;-45
2022/05/10 18:54:23;;;;;;;14.30;5.30;;;;;;;16.11;42.12;98787.77;432396;1272;108788;-47
2022/05/10 19:04:30;;;;;;;18.10;6.70;;;;;;;15.71;43.15;98793.52;432673;1272;99257;-45
2022/05/10 19:14:39;;;;;;;17.30;5.30;;;;;;;15.30;43.90;98794.45;432496;1272;112647;-46
2022/05/10 19:34:54;;;;;;;16.20;7.60;;;;;;;14.89;45.00;98786.58;432446;1273;98040;-41
2022/05/10 19:45:03;;;;;;;12.30;6.10;;;;;;;15.36;44.54;98782.67;432503;1271;108885;-43
2022/05/10 19:55:13;;;;;;;10.80;6.20;;;;;;;15.51;44.16;98788.05;432506;1271;99292;-41
2022/05/10 20:05:23;;;;;;;9.90;5.70;;;;;;;15.50;43.96;98784.41;432669;1271;112426;-46
2022/05/10 20:15:31;;;;;;;12.10;6.80;;;;;;;15.35;44.04;98785.48;432444;1272;108718;-44
2022/05/10 20:35:46;;;;;;;14.90;8.20;;;;;;;14.97;44.59;98783.88;432444;1271;108706;-44
2022/05/10 20:56:01;;;;;;;19.60;10.60;;;;;;;14.48;45.25;98778.52;432829;1271;112202;-45
2022/05/10 21:06:08;;;;;;;17.40;9.90;;;;;;;14.24;45.68;98775.86;432466;1271;108326;-45
2022/05/10 21:16:14;;;;;;;19.10;9.50;;;;;;;14.16;45.79;98779.49;432674;1271;99082;-44
2022/05/10 21:27:06;;;;;;;15.80;8.70;;;;;;;14.02;45.95;98776.21;432631;1271;108891;-43
2022/05/10 21:36:49;;;;;;;19.20;9.80;;;;;;;13.83;46.23;98766.72;432445;1273;99278;-42
2022/05/10 21:46:56;;;;;;;24.70;10.20;;;;;;;13.60;46.75;98769.23;432361;1271;112343;-43
2022/05/10 22:07:10;;;;;;;25.50;11.40;;;;;;;13.39;47.27;98766.83;432519;1272;99299;-42
2022/05/10 22:17:17;;;;;;;20.10;10.30;;;;;;;13.24;47.66;98763.63;432459;1273;108841;-45
2022/05/10 22:27:25;;;;;;;19.80;11.90;;;;;;;13.02;48.05;98752.07;432594;1271;99260;-46
2022/05/10 22:37:34;;;;;;;20.10;11.10;;;;;;;12.77;48.70;98745.85;432504;1271;112637;-46
2022/05/10 22:47:41;;;;;;;21.40;9.70;;;;;;;12.60;49.06;98743.00;432624;1272;108870;-47
2022/05/10 22:57:49;;;;;;;20.80;11.20;;;;;;;12.44;49.38;98735.36;432439;1271;99498;-45
2022/05/10 23:07:56;;;;;;;28.90;12.30;;;;;;;12.23;49.77;98723.27;432544;1271;108903;-44
2022/05/10 23:18:04;;;;;;;27.80;12.30;;;;;;;12.07;50.17;98711.43;432662;1271;98867;-46
2022/05/10 23:28:12;;;;;;;21.80;11.30;;;;;;;11.88;50.80;98695.45;432509;1273;112738;-45
2022/05/10 23:38:20;;;;;;;26.20;11.90;;;;;;;11.84;51.08;98691.59;432413;1272;108904;-46
2022/05/10 23:48:26;;;;;;;23.40;10.80;;;;;;;11.76;51.35;98687.85;432527;1272;99251;-46
2022/05/10 23:58:34;;;;;;;21.60;11.40;;;;;;;11.74;51.56;98680.34;432606;1274;108832;-48
